Terminal Aerodrome Forecast
Issued by NWS Duluth, MN

Home | Current Version | Previous Version | Text Only | Print | Product List | Glossary On
Versions: 1 2 3 4 5 6 7 8 9 10 11 12 13 14 15 16 17 18 19 20 21 22 23 24 25 26
000
FTUS43 KDLH 300532
TAFDLH
TAF
KDLH 300532Z 3006/3106 23009KT P6SM BKN250
     FM300900 20007KT 6SM BR SCT004
      TEMPO 3010/3014 2SM BR OVC004
     FM301500 21011KT P6SM SCT050=

USA.gov is the U.S. government's official web portal to all federal, state and local government web resources and services.